createdAt,value
2023-12-30T00:01:30.996Z,1.39
2023-12-30T00:03:59.153Z,1.23
2023-12-30T00:06:27.116Z,1.28
2023-12-30T00:08:55.056Z,1.25
2023-12-30T00:11:23.009Z,1.23
2023-12-30T00:13:51.054Z,1.01
2023-12-30T00:16:19.092Z,1.10
2023-12-30T00:18:48.551Z,1.16
2023-12-30T00:21:20.237Z,1.15
2023-12-30T00:23:48.374Z,1.27
2023-12-30T00:26:22.853Z,1.30
2023-12-30T00:29:02.730Z,1.18
2023-12-30T00:31:32.339Z,1.17
2023-12-30T00:34:03.052Z,1.11
2023-12-30T00:36:31.746Z,1.21
2023-12-30T00:38:59.734Z,1.31
2023-12-30T00:41:28.135Z,1.34
2023-12-30T00:43:56.496Z,1.26
2023-12-30T00:46:24.466Z,1.26
2023-12-30T00:48:57.315Z,1.28
2023-12-30T00:51:28.650Z,7.38
2023-12-30T00:53:56.553Z,2.08
2023-12-30T00:56:24.582Z,1.56
2023-12-30T00:58:52.743Z,1.45
2023-12-30T01:01:20.883Z,1.24
2023-12-30T01:03:49.143Z,1.31
2023-12-30T01:06:17.193Z,1.18
2023-12-30T01:08:46.912Z,1.20
2023-12-30T01:11:15.747Z,1.23
2023-12-30T01:13:43.723Z,1.23
2023-12-30T01:16:11.755Z,1.22
2023-12-30T01:18:39.862Z,1.31
2023-12-30T01:21:07.840Z,1.36
2023-12-30T01:23:35.968Z,4.17
2023-12-30T01:26:05.521Z,5.19
2023-12-30T01:28:35.206Z,2.79
2023-12-30T01:31:03.918Z,1.61
2023-12-30T01:33:32.144Z,1.42
2023-12-30T01:36:00.392Z,1.42
2023-12-30T01:38:28.310Z,1.51
2023-12-30T01:40:56.737Z,1.48
2023-12-30T01:43:27.398Z,1.52
2023-12-30T01:45:59.192Z,1.48
2023-12-30T01:48:29.715Z,1.60
2023-12-30T01:50:59.284Z,1.55
2023-12-30T01:53:29.272Z,1.73
2023-12-30T01:55:59.333Z,1.32
2023-12-30T01:58:29.769Z,1.57
2023-12-30T02:00:59.245Z,1.59
2023-12-30T02:03:27.529Z,1.51
2023-12-30T02:05:55.627Z,1.29
2023-12-30T02:08:23.666Z,1.55
2023-12-30T02:10:51.718Z,1.47
2023-12-30T02:13:19.696Z,1.51
2023-12-30T02:15:49.005Z,1.58
2023-12-30T02:18:17.281Z,1.89
2023-12-30T02:20:45.829Z,1.73
2023-12-30T02:23:15.216Z,1.46
2023-12-30T02:25:45.169Z,1.41
2023-12-30T02:28:13.392Z,1.92
2023-12-30T02:30:41.407Z,1.69
2023-12-30T02:33:09.644Z,1.70
2023-12-30T02:35:37.735Z,1.92
2023-12-30T02:38:06.208Z,1.77
2023-12-30T02:40:35.494Z,1.81
2023-12-30T02:43:03.685Z,1.97
2023-12-30T02:45:31.844Z,1.81
2023-12-30T02:47:59.819Z,1.76
2023-12-30T02:50:27.864Z,1.97
2023-12-30T02:52:56.507Z,2.05
2023-12-30T02:55:24.488Z,1.68
2023-12-30T02:57:54.258Z,2.01
2023-12-30T03:00:22.208Z,1.70
2023-12-30T03:02:50.257Z,2.06
2023-12-30T03:05:18.977Z,1.96
2023-12-30T03:07:47.165Z,1.83
2023-12-30T03:10:15.411Z,1.88
2023-12-30T03:12:43.485Z,1.92
2023-12-30T03:15:12.898Z,1.80
2023-12-30T03:17:41.088Z,1.84
2023-12-30T03:20:11.113Z,1.85
2023-12-30T03:22:39.347Z,2.08
2023-12-30T03:25:07.893Z,1.90
2023-12-30T03:27:38.042Z,1.87
2023-12-30T03:30:07.206Z,1.91
2023-12-30T03:32:36.708Z,1.90
2023-12-30T03:35:05.366Z,2.21
2023-12-30T03:37:33.634Z,2.05
2023-12-30T03:40:01.877Z,1.90
2023-12-30T03:42:30.022Z,2.10
2023-12-30T03:44:58.755Z,1.92
2023-12-30T03:47:26.772Z,1.98
2023-12-30T03:49:56.128Z,1.94
2023-12-30T03:52:24.092Z,1.99
2023-12-30T03:54:53.401Z,2.07
2023-12-30T03:57:21.525Z,1.89
2023-12-30T03:59:49.647Z,1.89
2023-12-30T04:02:19.215Z,1.99
2023-12-30T04:04:47.268Z,2.09
2023-12-30T04:07:16.637Z,1.91
2023-12-30T04:09:44.898Z,1.99
2023-12-30T04:12:13.348Z,1.96
2023-12-30T04:14:41.292Z,2.11
2023-12-30T04:17:09.267Z,1.91
2023-12-30T04:19:37.578Z,1.83
2023-12-30T04:22:05.961Z,1.96
2023-12-30T04:24:35.222Z,1.66
2023-12-30T04:27:03.150Z,1.61
2023-12-30T04:29:31.185Z,1.69
2023-12-30T04:31:59.455Z,1.64
2023-12-30T04:34:27.546Z,1.58
2023-12-30T04:36:55.668Z,1.66
2023-12-30T04:39:23.985Z,1.60
2023-12-30T04:41:58.638Z,1.55
2023-12-30T04:44:26.636Z,1.71
2023-12-30T04:46:54.519Z,1.42
2023-12-30T04:49:22.548Z,1.65
2023-12-30T04:51:50.710Z,1.47
2023-12-30T04:54:18.681Z,1.49
2023-12-30T04:56:46.637Z,1.28
2023-12-30T04:59:15.909Z,1.32
2023-12-30T05:01:43.895Z,1.40
2023-12-30T05:04:12.248Z,1.43
2023-12-30T05:06:40.272Z,1.37
2023-12-30T05:09:09.980Z,1.38
2023-12-30T05:11:37.997Z,1.40
2023-12-30T05:14:05.948Z,1.48
2023-12-30T05:16:36.222Z,1.40
2023-12-30T05:19:04.342Z,1.45
2023-12-30T05:21:32.300Z,1.24
2023-12-30T05:24:00.184Z,1.54
2023-12-30T05:26:28.131Z,1.51
2023-12-30T05:28:56.790Z,1.43
2023-12-30T05:31:24.689Z,1.67
2023-12-30T05:33:54.064Z,1.54
2023-12-30T05:36:22.133Z,1.59
2023-12-30T05:38:50.139Z,1.56
2023-12-30T05:41:18.169Z,1.61
2023-12-30T05:43:46.214Z,1.76
2023-12-30T05:46:18.199Z,1.58
2023-12-30T05:48:46.215Z,1.80
2023-12-30T05:51:15.514Z,1.61
2023-12-30T05:53:43.377Z,1.71
2023-12-30T05:56:11.299Z,1.80
2023-12-30T05:58:39.708Z,1.71
2023-12-30T06:01:07.668Z,1.86
2023-12-30T06:03:36.606Z,1.83
2023-12-30T06:06:05.545Z,2.01
2023-12-30T06:08:35.077Z,1.94
2023-12-30T06:11:03.528Z,2.09
2023-12-30T06:13:32.538Z,2.20
2023-12-30T06:16:00.546Z,2.24
2023-12-30T06:18:32.122Z,2.16
2023-12-30T06:21:00.648Z,2.54
2023-12-30T06:23:29.957Z,2.28
2023-12-30T06:25:59.333Z,2.29
2023-12-30T06:28:27.579Z,2.84
2023-12-30T06:30:56.175Z,2.56
2023-12-30T06:33:25.672Z,2.42
2023-12-30T06:35:53.881Z,2.75
2023-12-30T06:38:21.864Z,2.86
2023-12-30T06:40:49.812Z,3.06
2023-12-30T06:43:19.124Z,3.11
2023-12-30T06:45:47.045Z,2.97
2023-12-30T06:48:17.861Z,2.94
2023-12-30T06:50:46.979Z,3.12
2023-12-30T06:53:14.964Z,3.29
2023-12-30T06:55:47.965Z,3.43
2023-12-30T06:58:16.549Z,3.08
2023-12-30T07:00:45.984Z,3.28
2023-12-30T07:03:14.947Z,3.34
2023-12-30T07:05:42.937Z,3.27
2023-12-30T07:08:10.921Z,3.48
2023-12-30T07:10:39.212Z,3.58
2023-12-30T07:13:07.835Z,3.24
2023-12-30T07:15:36.032Z,3.37
2023-12-30T07:18:06.236Z,3.47
2023-12-30T07:20:35.843Z,3.32
2023-12-30T07:23:05.583Z,3.25
2023-12-30T07:25:34.065Z,3.38
2023-12-30T07:28:02.105Z,3.25
2023-12-30T07:30:30.766Z,3.10
2023-12-30T07:32:58.822Z,3.21
2023-12-30T07:35:28.969Z,3.33
2023-12-30T07:37:56.940Z,3.49
2023-12-30T07:40:26.310Z,3.26
2023-12-30T07:42:56.287Z,3.52
2023-12-30T07:45:24.192Z,4.67
2023-12-30T07:47:52.158Z,3.92
2023-12-30T07:50:20.241Z,3.33
2023-12-30T07:52:50.554Z,2.86
2023-12-30T07:55:18.855Z,2.69
2023-12-30T07:57:46.762Z,2.73
2023-12-30T08:00:15.899Z,2.28
2023-12-30T08:02:45.530Z,2.25
2023-12-30T08:05:13.561Z,2.36
2023-12-30T08:07:41.583Z,2.41
2023-12-30T08:10:12.420Z,2.31
2023-12-30T08:12:40.535Z,2.93
2023-12-30T08:15:11.998Z,3.01
2023-12-30T08:17:40.087Z,2.15
2023-12-30T08:20:09.355Z,2.14
2023-12-30T08:22:37.334Z,2.00
2023-12-30T08:25:06.070Z,1.96
2023-12-30T08:27:35.402Z,2.08
2023-12-30T08:30:03.400Z,2.46
2023-12-30T08:32:32.224Z,2.27
2023-12-30T08:35:03.348Z,1.88
2023-12-30T08:37:31.479Z,2.01
2023-12-30T08:39:59.508Z,2.29
2023-12-30T08:42:35.241Z,2.19
2023-12-30T08:45:06.564Z,1.55
2023-12-30T08:47:35.914Z,1.66
2023-12-30T08:50:05.094Z,1.79
2023-12-30T08:52:33.194Z,1.51
2023-12-30T08:55:01.642Z,1.44
2023-12-30T08:57:29.629Z,1.54
2023-12-30T08:59:57.555Z,1.40
2023-12-30T09:02:26.767Z,2.27
2023-12-30T09:04:57.561Z,2.77
2023-12-30T09:07:25.725Z,2.52
2023-12-30T09:09:53.751Z,1.80
2023-12-30T09:12:21.658Z,1.72
2023-12-30T09:14:49.593Z,1.38
2023-12-30T09:17:17.862Z,1.39
2023-12-30T09:19:47.321Z,1.33
2023-12-30T09:22:16.062Z,1.08
2023-12-30T09:24:44.446Z,1.08
2023-12-30T09:27:12.430Z,1.19
2023-12-30T09:29:40.386Z,1.31
2023-12-30T09:32:08.662Z,1.25
2023-12-30T09:34:41.998Z,1.24
2023-12-30T09:37:16.047Z,1.90
2023-12-30T09:39:44.294Z,1.92
2023-12-30T09:42:12.250Z,1.47
2023-12-30T09:44:41.652Z,1.16
2023-12-30T09:47:11.590Z,1.27
2023-12-30T09:49:39.975Z,1.25
2023-12-30T09:52:08.885Z,1.02
2023-12-30T09:54:48.331Z,0.86
2023-12-30T09:57:18.014Z,1.16
2023-12-30T09:59:49.066Z,1.16
2023-12-30T10:02:17.168Z,1.11
2023-12-30T10:04:45.943Z,2.17
2023-12-30T10:07:14.710Z,1.37
2023-12-30T10:09:44.708Z,1.24
2023-12-30T10:12:12.674Z,1.31
2023-12-30T10:14:40.683Z,1.39
2023-12-30T10:17:09.810Z,1.39
2023-12-30T10:19:38.082Z,1.12
2023-12-30T10:22:06.603Z,0.92
2023-12-30T10:24:34.601Z,1.02
2023-12-30T10:27:05.863Z,1.05
2023-12-30T10:29:46.114Z,1.00
2023-12-30T10:32:22.838Z,4.00
2023-12-30T10:34:51.163Z,1.45
2023-12-30T10:37:19.388Z,3.27
2023-12-30T10:39:50.865Z,1.45
2023-12-30T10:42:20.257Z,0.97
2023-12-30T10:44:48.239Z,1.43
2023-12-30T10:47:17.637Z,2.83
2023-12-30T10:49:53.485Z,1.05
2023-12-30T10:52:27.711Z,1.11
2023-12-30T10:55:06.276Z,1.09
2023-12-30T10:57:38.707Z,0.93
2023-12-30T11:00:10.533Z,0.86
2023-12-30T11:02:39.963Z,0.82
2023-12-30T11:05:13.881Z,0.72
2023-12-30T11:07:42.868Z,0.80
2023-12-30T11:10:18.532Z,0.82
2023-12-30T11:12:48.255Z,0.82
2023-12-30T11:15:27.267Z,0.73
2023-12-30T11:17:55.333Z,0.87
2023-12-30T11:20:26.848Z,0.87
2023-12-30T11:22:56.534Z,1.00
2023-12-30T11:25:24.626Z,0.76
2023-12-30T11:27:55.576Z,0.96
2023-12-30T11:30:28.047Z,0.80
2023-12-30T11:32:59.234Z,0.88
2023-12-30T11:35:28.354Z,0.84
2023-12-30T11:37:59.639Z,0.95
2023-12-30T11:40:31.617Z,0.87
2023-12-30T11:43:00.993Z,1.01
2023-12-30T11:45:29.253Z,0.92
2023-12-30T11:47:57.941Z,0.93
2023-12-30T11:50:25.950Z,0.91
2023-12-30T11:52:54.489Z,0.92
2023-12-30T11:55:23.719Z,1.09
2023-12-30T11:57:52.276Z,1.14
2023-12-30T12:00:22.637Z,0.97
2023-12-30T12:02:51.178Z,0.94
2023-12-30T12:05:19.387Z,1.06
2023-12-30T12:07:47.426Z,1.04
2023-12-30T12:10:15.934Z,1.28
2023-12-30T12:12:46.593Z,0.99
2023-12-30T12:15:15.120Z,0.76
2023-12-30T12:17:44.742Z,0.77
2023-12-30T12:20:12.846Z,0.79
2023-12-30T12:22:40.930Z,1.02
2023-12-30T12:25:10.779Z,0.91
2023-12-30T12:27:38.959Z,0.90
2023-12-30T12:30:10.021Z,1.11
2023-12-30T12:32:38.317Z,1.03
2023-12-30T12:35:08.550Z,0.99
2023-12-30T12:37:38.194Z,1.18
2023-12-30T12:40:11.854Z,1.57
2023-12-30T12:42:40.238Z,1.36
2023-12-30T12:45:09.656Z,1.10
2023-12-30T12:47:37.910Z,1.01
2023-12-30T12:50:08.738Z,1.29
2023-12-30T12:52:36.890Z,1.22
2023-12-30T12:55:05.457Z,1.20
2023-12-30T12:57:33.467Z,1.13
2023-12-30T13:00:02.176Z,1.22
2023-12-30T13:02:30.600Z,3.61
2023-12-30T13:04:58.600Z,11.04
2023-12-30T13:07:27.861Z,8.32
2023-12-30T13:10:00.457Z,3.46
2023-12-30T13:12:28.457Z,1.51
2023-12-30T13:14:59.767Z,1.32
2023-12-30T13:17:27.885Z,1.60
2023-12-30T13:19:55.915Z,1.52
2023-12-30T13:22:24.533Z,1.40
2023-12-30T13:24:53.862Z,1.54
2023-12-30T13:27:24.220Z,1.34
2023-12-30T13:29:52.257Z,1.29
2023-12-30T13:32:21.986Z,1.42
2023-12-30T13:34:52.971Z,1.89
2023-12-30T13:37:21.030Z,1.59
2023-12-30T13:39:48.998Z,1.20
2023-12-30T13:42:18.315Z,1.36
2023-12-30T13:44:47.423Z,1.40
2023-12-30T13:47:38.966Z,1.53
2023-12-30T13:50:15.001Z,1.38
2023-12-30T13:52:44.067Z,1.21
2023-12-30T13:55:14.296Z,1.59
2023-12-30T13:57:44.044Z,1.72
2023-12-30T14:00:14.835Z,1.85
2023-12-30T14:02:44.825Z,1.72
2023-12-30T14:05:18.890Z,1.49
2023-12-30T14:07:47.063Z,1.65
2023-12-30T14:10:19.636Z,1.59
2023-12-30T14:12:50.265Z,1.57
2023-12-30T14:15:19.246Z,1.58
2023-12-30T14:17:47.711Z,1.56
2023-12-30T14:20:15.896Z,1.92
2023-12-30T14:22:43.882Z,1.97
2023-12-30T14:25:12.704Z,1.59
2023-12-30T14:27:41.625Z,1.69
2023-12-30T14:30:13.165Z,1.72
2023-12-30T14:32:43.116Z,2.12
2023-12-30T14:35:11.573Z,1.96
2023-12-30T14:37:40.413Z,2.07
2023-12-30T14:40:09.971Z,4.30
2023-12-30T14:42:37.964Z,6.17
2023-12-30T14:45:08.967Z,5.83
2023-12-30T14:47:42.006Z,4.54
2023-12-30T14:50:10.379Z,3.04
2023-12-30T14:52:39.239Z,2.75
2023-12-30T14:55:10.039Z,2.29
2023-12-30T14:57:39.613Z,2.01
2023-12-30T15:00:14.050Z,2.39
2023-12-30T15:02:43.909Z,2.94
2023-12-30T15:05:15.118Z,2.99
2023-12-30T15:07:45.319Z,2.19
2023-12-30T15:10:15.429Z,2.34
2023-12-30T15:12:45.628Z,29.95
2023-12-30T15:15:13.677Z,4.70
2023-12-30T15:17:43.311Z,2.46
2023-12-30T15:20:13.189Z,1.96
2023-12-30T15:22:41.683Z,2.83
2023-12-30T15:25:12.417Z,2.44
2023-12-30T15:27:41.672Z,2.17
2023-12-30T15:30:11.199Z,2.04
2023-12-30T15:32:40.514Z,18.53
2023-12-30T15:35:11.464Z,41.27
2023-12-30T15:37:41.622Z,7.02
2023-12-30T15:40:12.508Z,3.17
2023-12-30T15:42:40.574Z,3.45
2023-12-30T15:45:09.064Z,3.74
2023-12-30T15:47:37.608Z,3.33
2023-12-30T15:50:06.501Z,2.63
2023-12-30T15:52:35.913Z,3.13
2023-12-30T15:55:04.664Z,3.56
2023-12-30T15:57:33.991Z,2.75
2023-12-30T16:00:01.937Z,2.80
2023-12-30T16:02:32.945Z,2.94
2023-12-30T16:05:00.985Z,3.09
2023-12-30T16:07:29.151Z,3.24
2023-12-30T16:09:58.983Z,3.44
2023-12-30T16:12:27.043Z,3.50
2023-12-30T16:14:54.949Z,3.50
2023-12-30T16:17:22.959Z,4.10
2023-12-30T16:19:51.464Z,4.03
2023-12-30T16:22:19.368Z,4.03
2023-12-30T16:24:47.265Z,4.05
2023-12-30T16:27:17.060Z,4.29
2023-12-30T16:29:46.083Z,4.77
2023-12-30T16:32:15.744Z,5.68
2023-12-30T16:34:43.678Z,5.99
2023-12-30T16:37:12.198Z,8.34
2023-12-30T16:39:41.992Z,11.22
2023-12-30T16:42:09.971Z,13.75
2023-12-30T16:44:41.849Z,16.53
2023-12-30T16:47:09.884Z,15.44
2023-12-30T16:49:37.945Z,13.39
2023-12-30T16:52:06.502Z,12.69
2023-12-30T16:54:34.464Z,12.48
2023-12-30T16:57:02.568Z,16.01
2023-12-30T16:59:32.426Z,12.10
2023-12-30T17:02:01.757Z,10.56
2023-12-30T17:04:29.855Z,8.72
2023-12-30T17:06:58.860Z,3.89
2023-12-30T17:09:27.100Z,2.99
2023-12-30T17:11:55.081Z,2.81
2023-12-30T17:14:23.074Z,2.99
2023-12-30T17:16:51.002Z,3.18
2023-12-30T17:19:20.473Z,3.71
2023-12-30T17:21:48.553Z,5.01
2023-12-30T17:24:18.075Z,9.45
2023-12-30T17:26:45.992Z,12.87
2023-12-30T17:29:13.920Z,15.07
2023-12-30T17:31:41.940Z,20.90
2023-12-30T17:34:10.707Z,24.55
2023-12-30T17:36:40.304Z,21.25
2023-12-30T17:39:08.822Z,17.54
2023-12-30T17:41:36.732Z,17.29
2023-12-30T17:44:05.715Z,20.61
2023-12-30T17:46:33.988Z,20.97
2023-12-30T17:49:02.383Z,16.71
2023-12-30T17:51:30.490Z,14.89
2023-12-30T17:53:59.807Z,14.05
2023-12-30T17:56:29.837Z,12.90
2023-12-30T17:58:57.974Z,12.56
2023-12-30T18:01:26.650Z,12.92
2023-12-30T18:03:54.852Z,15.16
2023-12-30T18:06:22.836Z,16.04
2023-12-30T18:08:50.875Z,19.11
2023-12-30T18:11:20.116Z,19.87
2023-12-30T18:13:48.169Z,18.73
2023-12-30T18:16:16.217Z,16.78
2023-12-30T18:18:44.193Z,16.36
2023-12-30T18:21:12.142Z,17.23
2023-12-30T18:23:40.056Z,16.97
2023-12-30T18:26:12.274Z,16.92
2023-12-30T18:28:41.798Z,15.16
2023-12-30T18:31:10.017Z,15.40
2023-12-30T18:33:38.031Z,16.44
2023-12-30T18:36:07.487Z,15.96
2023-12-30T18:38:35.375Z,15.39
2023-12-30T18:41:03.368Z,14.68
2023-12-30T18:43:31.387Z,14.84
2023-12-30T18:46:02.268Z,15.89
2023-12-30T18:48:30.351Z,17.07
2023-12-30T18:50:58.327Z,16.21
2023-12-30T18:53:26.216Z,13.87
2023-12-30T18:55:54.625Z,12.42
2023-12-30T18:58:22.552Z,11.47
2023-12-30T19:00:51.485Z,11.52
2023-12-30T19:03:20.802Z,12.85
2023-12-30T19:05:49.013Z,13.24
2023-12-30T19:08:17.689Z,12.76
2023-12-30T19:10:45.732Z,14.27
2023-12-30T19:13:13.933Z,15.24
2023-12-30T19:15:41.950Z,18.89
2023-12-30T19:18:09.970Z,21.96
2023-12-30T19:20:39.247Z,21.17
2023-12-30T19:23:08.416Z,22.16
2023-12-30T19:25:36.352Z,21.55
2023-12-30T19:28:05.616Z,23.94
2023-12-30T19:30:33.884Z,29.13
2023-12-30T19:33:04.430Z,29.12
2023-12-30T19:35:34.130Z,24.44
2023-12-30T19:38:03.921Z,26.81
2023-12-30T19:40:31.855Z,23.36
2023-12-30T19:42:59.850Z,19.78
2023-12-30T19:45:27.853Z,16.49
2023-12-30T19:47:55.850Z,14.74
2023-12-30T19:50:23.806Z,14.27
2023-12-30T19:52:52.068Z,16.59
2023-12-30T19:55:21.395Z,16.13
2023-12-30T19:57:49.583Z,17.57
2023-12-30T20:00:18.351Z,18.65
2023-12-30T20:02:47.790Z,18.26
2023-12-30T20:05:16.434Z,17.02
2023-12-30T20:07:45.193Z,16.28
2023-12-30T20:10:13.485Z,14.17
2023-12-30T20:12:43.758Z,11.06
2023-12-30T20:15:11.763Z,12.56
2023-12-30T20:17:39.813Z,13.13
2023-12-30T20:20:09.630Z,11.68
2023-12-30T20:22:37.674Z,18.44
2023-12-30T20:25:06.935Z,34.66
2023-12-30T20:27:34.902Z,18.30
2023-12-30T20:30:05.882Z,15.49
2023-12-30T20:32:34.104Z,16.10
2023-12-30T20:35:02.255Z,15.84
2023-12-30T20:37:30.378Z,13.85
2023-12-30T20:39:59.326Z,10.48
2023-12-30T20:42:30.023Z,9.65
2023-12-30T20:44:58.136Z,9.66
2023-12-30T20:47:27.451Z,9.76
2023-12-30T20:49:55.728Z,7.95
2023-12-30T20:52:23.921Z,7.74
2023-12-30T20:54:52.085Z,7.72
2023-12-30T20:57:20.046Z,9.16
2023-12-30T20:59:47.995Z,10.72
2023-12-30T21:02:17.454Z,9.82
2023-12-30T21:04:46.737Z,9.14
2023-12-30T21:07:14.784Z,9.29
2023-12-30T21:09:42.906Z,8.04
2023-12-30T21:12:10.905Z,8.55
2023-12-30T21:14:38.896Z,8.93
2023-12-30T21:17:07.102Z,7.55
2023-12-30T21:19:35.463Z,6.89
2023-12-30T21:22:06.267Z,7.18
2023-12-30T21:24:34.299Z,7.92
2023-12-30T21:27:02.266Z,7.78
2023-12-30T21:29:30.184Z,6.98
2023-12-30T21:31:58.236Z,15.97
2023-12-30T21:34:26.762Z,49.29
2023-12-30T21:36:55.120Z,11.40
2023-12-30T21:39:24.495Z,8.23
2023-12-30T21:41:52.380Z,8.22
2023-12-30T21:44:21.233Z,7.43
2023-12-30T21:46:49.336Z,8.71
2023-12-30T21:49:17.478Z,8.51
2023-12-30T21:51:47.063Z,8.25
2023-12-30T21:54:15.565Z,10.04
2023-12-30T21:56:44.904Z,10.46
2023-12-30T21:59:12.844Z,10.96
2023-12-30T22:01:40.927Z,16.28
2023-12-30T22:04:09.074Z,14.65
2023-12-30T22:06:37.112Z,15.00
2023-12-30T22:09:05.965Z,12.04
2023-12-30T22:11:34.213Z,10.13
2023-12-30T22:14:03.959Z,8.51
2023-12-30T22:16:31.891Z,8.68
2023-12-30T22:19:00.026Z,6.97
2023-12-30T22:21:29.009Z,6.82
2023-12-30T22:23:57.007Z,5.64
2023-12-30T22:26:24.932Z,6.21
2023-12-30T22:28:53.021Z,6.40
2023-12-30T22:31:22.459Z,6.79
2023-12-30T22:33:50.564Z,6.70
2023-12-30T22:36:28.132Z,6.92
2023-12-30T22:38:56.394Z,6.73
2023-12-30T22:41:24.333Z,7.73
2023-12-30T22:43:52.229Z,7.94
2023-12-30T22:46:20.208Z,8.73
2023-12-30T22:48:49.910Z,7.56
2023-12-30T22:51:17.913Z,5.76
2023-12-30T22:53:45.771Z,5.29
2023-12-30T22:56:14.258Z,9.04
2023-12-30T22:58:42.220Z,5.06
2023-12-30T23:01:10.268Z,4.33
2023-12-30T23:03:40.298Z,3.82
2023-12-30T23:06:10.236Z,3.80
2023-12-30T23:08:38.197Z,3.57
2023-12-30T23:11:06.157Z,4.02
2023-12-30T23:13:34.123Z,4.30
2023-12-30T23:16:02.684Z,4.24
2023-12-30T23:18:30.749Z,4.63
2023-12-30T23:20:58.904Z,5.15
2023-12-30T23:23:28.208Z,5.39
2023-12-30T23:25:56.094Z,5.76
2023-12-30T23:28:24.050Z,6.39
2023-12-30T23:30:52.480Z,6.71
2023-12-30T23:33:20.539Z,6.40
2023-12-30T23:35:49.001Z,6.15
2023-12-30T23:38:16.982Z,5.91
2023-12-30T23:40:46.394Z,11.32
2023-12-30T23:43:14.462Z,12.44
2023-12-30T23:45:42.392Z,7.90
2023-12-30T23:48:10.463Z,6.70
2023-12-30T23:50:38.512Z,6.80
2023-12-30T23:53:06.668Z,7.38
2023-12-30T23:55:34.821Z,7.31
2023-12-30T23:58:04.631Z,6.62
